createdAt,value
2017-09-20T04:49:36.561Z,1011.37
2017-09-20T04:52:18.777Z,1011.4
2017-09-20T04:53:48.061Z,1011.41
2017-09-20T04:54:49.539Z,1011.44
2017-09-20T04:55:51.496Z,1011.39
2017-09-20T04:56:48.729Z,1011.4
2017-09-20T04:57:54.426Z,1011.34
2017-09-20T04:58:56.775Z,1011.36
2017-09-20T04:59:58.139Z,1011.34
2017-09-20T05:01:02.424Z,1011.34
2017-09-20T05:02:06.703Z,1011.35
2017-09-20T05:03:09.286Z,1011.34
2017-09-20T05:04:19.299Z,1011.37
2017-09-20T05:08:06.732Z,1011.3
2017-09-20T05:09:09.871Z,1011.28
2017-09-20T05:12:11.366Z,1011.31
2017-09-20T05:14:17.032Z,1011.41
2017-09-20T05:15:23.739Z,1011.41
2017-09-20T05:16:29.650Z,1011.41
2017-09-20T05:17:38.328Z,1011.44
2017-09-20T05:18:47.684Z,1011.44
2017-09-20T05:19:58.235Z,1011.44
2017-09-20T05:21:04.685Z,1011.48
2017-09-20T05:22:12.219Z,1011.49
2017-09-20T05:23:11.556Z,1011.5
2017-09-20T05:24:17.712Z,1011.51
2017-09-20T05:25:23.730Z,1011.52
2017-09-20T05:26:25.393Z,1011.54
2017-09-20T05:27:28.276Z,1011.56
2017-09-20T05:28:38.028Z,1011.56
2017-09-20T05:29:45.630Z,1011.57
2017-09-20T05:30:56.743Z,1011.59
2017-09-20T05:32:00.629Z,1011.57
2017-09-20T05:33:05.175Z,1011.62
2017-09-20T05:34:12.483Z,1011.52
2017-09-20T05:35:14.384Z,1011.63
2017-09-20T05:36:18.358Z,1011.64
2017-09-20T05:37:24.543Z,1011.6
2017-09-20T05:43:22.722Z,1011.65
2017-09-20T05:44:25.798Z,1011.64
2017-09-20T05:45:29.168Z,1011.66
2017-09-20T05:46:28.989Z,1011.62
2017-09-20T05:47:34.958Z,1011.59
2017-09-20T05:48:48.017Z,1011.6
2017-09-20T05:50:19.869Z,1011.55
2017-09-20T05:51:27.546Z,1011.58
2017-09-20T05:52:34.299Z,1011.54
2017-09-20T05:53:35.983Z,1011.54
2017-09-20T05:54:35.509Z,1011.57
2017-09-20T05:55:36.690Z,1011.59
2017-09-20T05:56:34.708Z,1011.62
2017-09-20T05:57:33.826Z,1011.6
2017-09-20T05:58:37.331Z,1011.63
2017-09-20T05:59:41.102Z,1011.62
2017-09-20T06:00:42.396Z,1011.63
2017-09-20T06:01:42.824Z,1011.59
2017-09-20T06:04:25.866Z,1011.62
2017-09-20T06:05:32.255Z,1011.58
2017-09-20T06:06:33.524Z,1011.61
2017-09-20T06:07:38.241Z,1011.63
2017-09-20T06:08:38.906Z,1011.61
2017-09-20T06:09:41.551Z,1011.61
2017-09-20T06:10:40.659Z,1011.65
2017-09-20T06:13:01.098Z,1011.57
2017-09-20T06:14:02.760Z,1011.55
2017-09-20T06:15:03.510Z,1011.54
2017-09-20T06:16:10.784Z,1011.5
2017-09-20T06:19:05.740Z,1011.58
2017-09-20T06:20:05.105Z,1011.6
2017-09-20T06:49:32.147Z,1011.86
2017-09-20T06:50:39.514Z,1011.85
2017-09-20T06:52:46.488Z,1011.84
2017-09-20T06:53:46.493Z,1011.89
2017-09-20T06:54:56.224Z,1011.86
2017-09-20T06:56:02.853Z,1011.88
2017-09-20T06:57:02.478Z,1011.92
2017-09-20T06:58:13.702Z,1011.92
2017-09-20T07:00:16.975Z,1011.95
2017-09-20T07:01:21.121Z,1011.95
2017-09-20T07:02:21.929Z,1011.97
2017-09-20T07:03:21.944Z,1011.94
2017-09-20T07:04:23.638Z,1011.96
2017-09-20T07:05:21.873Z,1011.93
2017-09-20T07:06:20.327Z,1011.98
2017-09-20T07:07:24.596Z,1011.94
2017-09-20T07:08:30.320Z,1011.97
2017-09-20T07:09:32.778Z,1012.01
2017-09-20T07:10:33.779Z,1011.97
2017-09-20T07:11:37.405Z,1012.01
2017-09-20T07:14:52.573Z,1011.99
2017-09-20T07:15:52.854Z,1012.06
2017-09-20T07:16:57.435Z,1012.01
2017-09-20T07:18:06.408Z,1011.99
2017-09-20T07:19:12.272Z,1012.04
2017-09-20T07:20:14.869Z,1012
2017-09-20T07:21:33.257Z,1012
2017-09-20T07:22:43.632Z,1012
2017-09-20T07:23:49.184Z,1012.03
2017-09-20T07:24:53.651Z,1012.07
2017-09-20T07:27:55.696Z,1012.09
2017-09-20T07:31:47.287Z,1012.12
2017-09-20T08:15:45.061Z,1012.02
2017-09-20T08:16:25.556Z,1012.05
2017-09-20T08:17:06.006Z,1012.05
2017-09-20T08:57:03.327Z,1012.15
2017-09-20T08:57:55.299Z,1012.16
2017-09-20T08:58:45.738Z,1012.16
2017-09-20T08:59:37.692Z,1012.15
2017-09-20T09:00:34.998Z,1012.2
2017-09-20T09:01:27.640Z,1012.11
2017-09-20T09:04:32.534Z,1012.23
2017-09-20T09:15:34.357Z,1012.3
2017-09-20T09:20:34.284Z,1012.3
2017-09-20T09:25:33.032Z,1012.3
2017-09-20T09:26:34.900Z,1012.33
2017-09-20T09:27:38.884Z,1012.36
2017-09-20T09:28:47.805Z,1012.31
2017-09-20T09:30:24.667Z,1012.36
2017-09-20T10:02:30.389Z,1012.3
2017-09-20T10:03:36.683Z,1012.38
2017-09-20T10:04:42.256Z,1012.35
2017-09-20T10:05:47.456Z,1012.39
2017-09-20T10:06:52.376Z,1012.34
2017-09-20T10:07:57.812Z,1012.4
2017-09-20T10:08:59.667Z,1012.36
2017-09-20T10:10:04.003Z,1012.35
2017-09-20T10:12:24.375Z,1012.37
2017-09-20T10:13:38.541Z,1012.34
2017-09-20T10:15:35.040Z,1012.33
2017-09-20T10:29:22.532Z,1012.3
2017-09-20T10:36:31.942Z,1012.16
2017-09-20T10:37:20.427Z,1012.11
2017-09-20T10:38:14.085Z,1012.11
2017-09-20T11:19:10.750Z,1011.93
2017-09-20T11:20:21.129Z,1011.85
2017-09-20T11:21:23.020Z,1011.88
2017-09-20T11:24:03.234Z,1011.85
2017-09-20T11:25:08.610Z,1011.89
2017-09-20T11:27:55.988Z,1011.78
2017-09-20T11:29:01.123Z,1011.73
2017-09-20T11:30:01.598Z,1011.76
2017-09-20T11:31:05.784Z,1011.74
2017-09-20T11:32:05.880Z,1011.77
2017-09-20T11:33:05.303Z,1011.76
2017-09-20T11:34:14.258Z,1011.77
2017-09-20T11:35:44.529Z,1011.72
2017-09-20T11:41:46.086Z,1011.81
2017-09-20T11:42:28.469Z,1011.81
2017-09-20T11:43:17.118Z,1011.78
2017-09-20T11:43:57.212Z,1011.84
2017-09-20T11:44:41.586Z,1011.81
2017-09-20T11:45:21.067Z,1011.8
2017-09-20T11:46:04.138Z,1011.82
2017-09-20T11:46:44.458Z,1011.79
2017-09-20T11:47:29.609Z,1011.78
2017-09-20T11:48:10.046Z,1011.79
2017-09-20T11:48:53.536Z,1011.85
2017-09-20T11:49:34.348Z,1011.81
2017-09-20T11:50:14.923Z,1011.8
2017-09-20T11:50:57.685Z,1011.81
2017-09-20T11:51:37.512Z,1011.81
2017-09-20T11:52:18.506Z,1011.82
2017-09-20T11:52:59.146Z,1011.8
2017-09-20T11:53:41.150Z,1011.75
2017-09-20T11:54:22.808Z,1011.79
2017-09-20T11:55:03.783Z,1011.84
2017-09-20T11:55:45.142Z,1011.75
2017-09-20T11:56:27.111Z,1011.77
2017-09-20T11:57:07.659Z,1011.73
2017-09-20T11:57:48.436Z,1011.78
2017-09-20T11:58:30.596Z,1011.77
2017-09-20T11:59:11.294Z,1011.77
2017-09-20T11:59:52.029Z,1011.75
2017-09-20T12:00:34.026Z,1011.78
2017-09-20T12:01:19.269Z,1011.75
2017-09-20T12:02:02.487Z,1011.75
2017-09-20T12:02:44.486Z,1011.75
2017-09-20T12:03:25.476Z,1011.67
2017-09-20T12:04:06.677Z,1011.72
2017-09-20T12:04:47.335Z,1011.66
2017-09-20T12:05:27.410Z,1011.7
2017-09-20T12:06:08.155Z,1011.7
2017-09-20T12:06:48.880Z,1011.65
2017-09-20T12:07:30.278Z,1011.68
2017-09-20T12:08:11.971Z,1011.68
2017-09-20T12:08:53.103Z,1011.67
2017-09-20T12:09:33.461Z,1011.67
2017-09-20T12:10:13.957Z,1011.66
2017-09-20T12:10:54.380Z,1011.67
2017-09-20T12:11:34.769Z,1011.61
2017-09-20T12:12:15.677Z,1011.63
2017-09-20T12:12:56.058Z,1011.63
2017-09-20T12:13:36.848Z,1011.64
2017-09-20T12:27:57.734Z,1011.49
2017-09-20T12:28:39.152Z,1011.52
2017-09-20T12:32:43.968Z,1011.46
2017-09-20T12:33:24.224Z,1011.37
2017-09-20T12:34:06.474Z,1011.4
2017-09-20T12:34:47.697Z,1011.35
2017-09-20T12:35:30.064Z,1011.37
2017-09-20T12:36:09.919Z,1011.35
2017-09-20T12:36:52.174Z,1011.3
2017-09-20T12:37:34.912Z,1011.32
2017-09-20T12:38:16.350Z,1011.35
2017-09-20T12:38:57.826Z,1011.3
2017-09-20T12:39:40.683Z,1011.32
2017-09-20T12:40:21.207Z,1011.3
2017-09-20T12:49:42.371Z,1011.34
2017-09-20T12:50:40.534Z,1011.24
2017-09-20T12:59:08.119Z,1011.41
2017-09-20T13:00:03.695Z,1011.19
2017-09-20T13:00:48.033Z,1011.38
2017-09-20T13:01:26.857Z,1011.28
2017-09-20T13:02:07.190Z,1011.31
2017-09-20T13:02:47.714Z,1011.37
2017-09-20T13:03:28.379Z,1011.38
2017-09-20T13:04:09.406Z,1011.36
2017-09-20T13:04:49.949Z,1011.32
2017-09-20T13:05:46.608Z,1011.39
2017-09-20T13:06:26.264Z,1011.37
2017-09-20T13:09:04.086Z,1011.37
2017-09-20T13:10:11.883Z,1011.29
2017-09-20T13:16:19.891Z,1011.3
2017-09-20T13:17:17.242Z,1011.31
2017-09-20T13:17:58.750Z,1011.28
2017-09-20T13:18:40.254Z,1011.29
2017-09-20T13:19:22.199Z,1011.31
2017-09-20T13:20:03.210Z,1011.32
2017-09-20T13:21:03.675Z,1011.31
2017-09-20T13:21:50.853Z,1011.25
2017-09-20T13:22:45.415Z,1011.3
2017-09-20T13:23:27.517Z,1011.3
2017-09-20T13:24:15.889Z,1011.31
2017-09-20T13:25:19.317Z,1011.3
2017-09-20T13:26:33.155Z,1011.28
2017-09-20T13:27:15.997Z,1011.3
2017-09-20T13:27:57.110Z,1011.33
2017-09-20T13:28:37.983Z,1011.3
2017-09-20T13:29:18.626Z,1011.31
2017-09-20T13:29:59.071Z,1011.37
2017-09-20T13:30:39.500Z,1011.33
2017-09-20T13:31:20.107Z,1011.35
2017-09-20T13:32:03.269Z,1011.37
2017-09-20T13:32:43.678Z,1011.34
2017-09-20T13:33:24.118Z,1011.35
2017-09-20T13:34:04.973Z,1011.39
2017-09-20T13:34:45.588Z,1011.41
2017-09-20T13:35:26.094Z,1011.4
2017-09-20T13:36:06.405Z,1011.41
2017-09-20T13:36:46.852Z,1011.42
2017-09-20T13:37:27.340Z,1011.39
2017-09-20T13:38:22.789Z,1011.38
2017-09-20T13:39:03.683Z,1011.38
2017-09-20T13:39:43.980Z,1011.4
2017-09-20T13:40:24.877Z,1011.4
2017-09-20T13:41:05.738Z,1011.42
2017-09-20T13:41:48.169Z,1011.4
2017-09-20T13:42:28.783Z,1011.38
2017-09-20T13:43:11.047Z,1011.41
2017-09-20T13:43:54.194Z,1011.36
2017-09-20T13:44:35.452Z,1011.37
2017-09-20T13:45:16.267Z,1011.4
2017-09-20T13:45:57.116Z,1011.37
2017-09-20T13:51:49.884Z,1011.34
2017-09-20T13:53:00.751Z,1011.4
2017-09-20T13:53:45.399Z,1011.36
2017-09-20T13:54:27.426Z,1011.41
2017-09-20T13:55:08.185Z,1011.33
2017-09-20T13:55:48.300Z,1011.35
2017-09-20T13:56:29.561Z,1011.36
2017-09-20T13:57:09.927Z,1011.39
2017-09-20T13:57:50.612Z,1011.35
2017-09-20T13:58:31.291Z,1011.34
2017-09-20T13:59:11.876Z,1011.34
2017-09-20T13:59:59.000Z,1011.31
2017-09-20T14:00:54.239Z,1011.35
2017-09-20T14:01:35.747Z,1011.38
2017-09-20T14:02:16.228Z,1011.35
2017-09-20T14:02:56.688Z,1011.3
2017-09-20T14:03:37.936Z,1011.35
2017-09-20T14:04:18.150Z,1011.32
2017-09-20T14:04:59.111Z,1011.3
2017-09-20T14:05:39.603Z,1011.28
2017-09-20T14:06:20.209Z,1011.28
2017-09-20T14:07:13.737Z,1011.28
2017-09-20T14:07:54.602Z,1011.32
2017-09-20T14:08:35.124Z,1011.29
2017-09-20T14:09:17.238Z,1011.22
2017-09-20T14:09:59.708Z,1011.26
2017-09-20T14:10:40.651Z,1011.32
2017-09-20T14:11:24.551Z,1011.32
2017-09-20T14:12:09.218Z,1011.3
2017-09-20T14:12:50.688Z,1011.26
2017-09-20T14:13:32.439Z,1011.34
2017-09-20T14:14:33.415Z,1011.28
2017-09-20T14:16:54.079Z,1011.35
2017-09-20T14:18:57.347Z,1011.29
2017-09-20T14:19:53.375Z,1011.3
2017-09-20T14:20:59.333Z,1011.26
2017-09-20T14:21:56.958Z,1011.25
2017-09-20T14:26:38.697Z,1011.22
2017-09-20T14:27:19.365Z,1011.21
2017-09-20T14:27:59.829Z,1011.26
2017-09-20T14:28:40.454Z,1011.19
2017-09-20T14:29:20.963Z,1011.17
2017-09-20T14:30:01.612Z,1011.16
2017-09-20T14:30:41.816Z,1011.16
2017-09-20T14:31:22.316Z,1011.17
2017-09-20T14:32:02.857Z,1011.21
2017-09-20T14:32:43.317Z,1011.12
2017-09-20T14:33:24.641Z,1010.96
2017-09-20T14:34:05.053Z,1011.12
2017-09-20T14:35:01.712Z,1011.14
2017-09-20T14:35:42.493Z,1011.06
2017-09-20T14:36:23.112Z,1011.2
2017-09-20T14:37:07.457Z,1011.16
2017-09-20T14:37:48.702Z,1011.16
2017-09-20T14:38:30.657Z,1011.14
2017-09-20T14:39:13.884Z,1011.17
2017-09-20T14:39:54.265Z,1011.19
2017-09-20T14:40:34.863Z,1011.12
2017-09-20T14:41:15.682Z,1011.12
2017-09-20T14:41:56.502Z,1011.08
2017-09-20T14:42:37.045Z,1011.08
2017-09-20T14:43:17.523Z,1011.09
2017-09-20T14:43:58.856Z,1011.08
2017-09-20T14:44:39.299Z,1011.11
2017-09-20T14:45:20.320Z,1011.12
2017-09-20T14:46:02.144Z,1011.11
2017-09-20T14:46:42.552Z,1011.1
2017-09-20T14:47:38.910Z,1011.18
2017-09-20T14:48:19.417Z,1011.15
2017-09-20T14:50:49.580Z,1011.15
2017-09-20T14:51:30.006Z,1011.14
2017-09-20T14:54:15.465Z,1011.14
2017-09-20T14:54:56.645Z,1011.1
2017-09-20T14:55:39.208Z,1011.14
2017-09-20T14:56:20.498Z,1011.08
2017-09-20T14:57:01.353Z,1011.11
2017-09-20T14:57:41.882Z,1011.1
2017-09-20T14:58:23.482Z,1011.07
2017-09-20T14:59:04.259Z,1011.04
2017-09-20T14:59:46.648Z,1011.1
2017-09-20T15:00:26.959Z,1011.1
2017-09-20T15:01:07.434Z,1011.08
2017-09-20T15:01:48.151Z,1011.07
2017-09-20T15:02:28.729Z,1011.08
2017-09-20T15:03:09.601Z,1011.1
2017-09-20T15:03:49.834Z,1011.14
2017-09-20T15:04:30.757Z,1011.04
2017-09-20T15:05:11.640Z,1011.06
2017-09-20T15:05:52.089Z,1011.08
2017-09-20T15:06:32.623Z,1011.07
2017-09-20T15:07:13.300Z,1011.05
2017-09-20T15:07:53.648Z,1011.04
2017-09-20T15:08:34.071Z,1011.07
2017-09-20T15:09:14.861Z,1011.07
2017-09-20T15:09:55.207Z,1011.04
2017-09-20T15:10:35.552Z,1010.99
2017-09-20T15:11:16.283Z,1011.01
2017-09-20T15:11:56.647Z,1011.01
2017-09-20T15:12:37.292Z,1011.01
2017-09-20T15:13:17.652Z,1010.98
2017-09-20T15:13:58.107Z,1011.01
2017-09-20T15:14:39.329Z,1010.99
2017-09-20T15:15:21.043Z,1010.98
2017-09-20T15:16:00.971Z,1010.98
2017-09-20T15:16:42.705Z,1011
2017-09-20T15:17:23.798Z,1010.96
2017-09-20T15:18:05.105Z,1010.99
2017-09-20T15:18:45.415Z,1011
2017-09-20T15:19:26.013Z,1011.02
2017-09-20T15:20:06.343Z,1010.99
2017-09-20T15:20:46.789Z,1010.99
2017-09-20T15:21:27.241Z,1011.01
2017-09-20T15:22:10.108Z,1011
2017-09-20T15:22:50.860Z,1010.97
2017-09-20T15:23:31.233Z,1010.95
2017-09-20T15:24:11.938Z,1011
2017-09-20T15:24:52.391Z,1011.02
2017-09-20T15:25:33.146Z,1011.02
2017-09-20T15:27:31.375Z,1011.03
2017-09-20T15:28:11.828Z,1011.02
2017-09-20T15:28:52.350Z,1011.01
2017-09-20T15:29:32.763Z,1011.07
2017-09-20T15:30:13.252Z,1011.04
2017-09-20T15:30:53.663Z,1011.04
2017-09-20T15:31:34.561Z,1011.04
2017-09-20T15:32:15.166Z,1011.03
2017-09-20T15:32:55.898Z,1011
2017-09-20T15:33:36.366Z,1011.01
2017-09-20T15:34:16.911Z,1011.02
2017-09-20T15:34:57.444Z,1011
2017-09-20T15:35:38.058Z,1011.02
2017-09-20T15:36:18.584Z,1011
2017-09-20T15:36:58.928Z,1011.01
2017-09-20T15:37:39.394Z,1011
2017-09-20T15:38:19.839Z,1010.96
2017-09-20T15:39:00.570Z,1010.98
2017-09-20T15:39:41.155Z,1010.98
2017-09-20T15:40:21.684Z,1011.01
2017-09-20T15:41:02.549Z,1011
2017-09-20T15:41:43.975Z,1010.99
2017-09-20T15:42:24.435Z,1011.02
2017-09-20T15:43:05.099Z,1011
2017-09-20T15:43:45.916Z,1011
2017-09-20T15:44:26.089Z,1010.97
2017-09-20T15:45:06.957Z,1011
2017-09-20T15:45:47.521Z,1010.96
2017-09-20T15:46:28.585Z,1010.97
2017-09-20T15:47:08.885Z,1010.94
2017-09-20T15:47:51.185Z,1010.99
2017-09-20T15:48:33.064Z,1010.95
2017-09-20T15:49:13.520Z,1010.94
2017-09-20T15:49:55.033Z,1010.96
2017-09-20T15:50:35.654Z,1010.94
2017-09-20T15:51:19.089Z,1010.98
2017-09-20T15:52:00.742Z,1010.94
2017-09-20T15:52:44.154Z,1010.96
2017-09-20T15:53:41.613Z,1010.91
2017-09-20T15:54:21.914Z,1010.93
2017-09-20T15:55:02.400Z,1010.98
2017-09-20T15:55:42.968Z,1010.99
2017-09-20T15:56:24.135Z,1011.01
2017-09-20T15:57:06.614Z,1010.98
2017-09-20T15:57:47.994Z,1010.94
2017-09-20T15:58:28.330Z,1010.96
2017-09-20T15:59:08.828Z,1010.95
2017-09-20T15:59:49.489Z,1010.94
2017-09-20T16:00:30.670Z,1010.94
2017-09-20T16:01:10.509Z,1010.91
2017-09-20T16:01:50.978Z,1010.97
2017-09-20T16:02:32.163Z,1010.97
2017-09-20T16:03:12.188Z,1010.97
2017-09-20T16:03:52.685Z,1010.97
2017-09-20T16:04:33.096Z,1010.96
2017-09-20T16:05:13.551Z,1010.97
2017-09-20T16:05:54.016Z,1010.97
2017-09-20T16:06:34.407Z,1010.97
2017-09-20T16:07:14.834Z,1010.95
2017-09-20T16:07:55.342Z,1010.97
2017-09-20T16:08:35.778Z,1011.01
2017-09-20T16:09:16.519Z,1010.96
2017-09-20T16:09:56.975Z,1010.97
2017-09-20T16:10:37.372Z,1010.97
2017-09-20T16:11:17.803Z,1010.98
2017-09-20T16:11:58.310Z,1011
2017-09-20T16:12:39.684Z,1010.98
2017-09-20T16:13:20.204Z,1010.99
2017-09-20T16:14:00.426Z,1010.99
2017-09-20T16:14:40.922Z,1011.03
2017-09-20T16:15:21.421Z,1010.98
2017-09-20T16:16:01.928Z,1011.01
2017-09-20T16:16:42.382Z,1010.99
2017-09-20T16:17:22.755Z,1011.01
2017-09-20T16:18:03.260Z,1011.04
2017-09-20T16:18:43.709Z,1011.03
2017-09-20T16:19:24.366Z,1011.01
2017-09-20T16:20:04.762Z,1011.03
2017-09-20T16:20:45.271Z,1011.03
2017-09-20T16:21:25.673Z,1011.03
2017-09-20T16:22:06.160Z,1011.03
2017-09-20T16:22:46.640Z,1011.04
2017-09-20T16:23:27.152Z,1011.04
2017-09-20T16:24:07.718Z,1011.03
2017-09-20T16:24:48.185Z,1011.02
2017-09-20T16:25:28.699Z,1011
2017-09-20T16:27:38.447Z,1010.98
2017-09-20T16:28:21.092Z,1011
2017-09-20T16:29:01.541Z,1011.02
2017-09-20T16:29:42.015Z,1011.01
2017-09-20T16:30:22.511Z,1011.05
2017-09-20T16:31:02.882Z,1011.02
2017-09-20T16:31:43.403Z,1011.06
2017-09-20T16:32:24.190Z,1011.03
2017-09-20T16:33:04.626Z,1011.05
2017-09-20T16:33:45.057Z,1011.02
2017-09-20T16:34:25.430Z,1011.06
2017-09-20T16:35:07.108Z,1011.07
2017-09-20T16:35:47.263Z,1011.04
2017-09-20T16:36:27.463Z,1011.07
2017-09-20T16:37:07.904Z,1011.06
2017-09-20T16:37:48.350Z,1011.08
2017-09-20T16:38:29.393Z,1011.08
2017-09-20T16:39:10.327Z,1011.08
2017-09-20T16:39:50.730Z,1011.05
2017-09-20T16:40:31.874Z,1011.04
2017-09-20T16:41:12.550Z,1011.05
2017-09-20T16:41:52.892Z,1011.06
2017-09-20T16:42:33.541Z,1011.06
2017-09-20T16:43:13.908Z,1011.05
2017-09-20T16:43:54.481Z,1011.06
2017-09-20T16:44:34.919Z,1011.06
2017-09-20T16:45:15.354Z,1011.04
2017-09-20T16:45:55.825Z,1011
2017-09-20T16:46:36.345Z,1011.03
2017-09-20T16:47:16.844Z,1011
2017-09-20T16:49:29.309Z,1011.03
2017-09-20T16:50:26.348Z,1011.07
2017-09-20T16:51:06.402Z,1011.08
2017-09-20T16:51:47.022Z,1011.11
2017-09-20T16:52:27.698Z,1011.12
2017-09-20T16:53:07.969Z,1011.1
2017-09-20T16:53:49.020Z,1011.11
2017-09-20T16:54:29.568Z,1011.11
2017-09-20T16:55:10.072Z,1011.11
2017-09-20T16:55:50.553Z,1011.08
2017-09-20T16:56:30.989Z,1011.12
2017-09-20T16:57:11.420Z,1011.14
2017-09-20T16:57:51.851Z,1011.11
2017-09-20T16:58:32.231Z,1011.13
2017-09-20T16:59:12.683Z,1011.15
2017-09-20T16:59:53.393Z,1011.11
2017-09-20T17:00:33.856Z,1011.15
2017-09-20T17:01:27.898Z,1011.13
2017-09-20T17:04:32.965Z,1011.16
2017-09-20T17:05:32.671Z,1011.19
2017-09-20T17:06:33.185Z,1011.2
2017-09-20T17:07:34.951Z,1011.18
2017-09-20T17:08:39.952Z,1011.21
2017-09-20T17:09:37.105Z,1011.18
2017-09-20T17:10:35.032Z,1011.16
2017-09-20T17:11:33.155Z,1011.21
2017-09-20T17:12:33.228Z,1011.2
2017-09-20T17:13:31.346Z,1011.23
2017-09-20T17:14:28.104Z,1011.21
2017-09-20T17:15:29.181Z,1011.18
2017-09-20T17:16:41.787Z,1011.23
2017-09-20T17:17:42.162Z,1011.2
2017-09-20T17:18:41.703Z,1011.19
2017-09-20T17:19:40.916Z,1011.2
2017-09-20T17:20:38.618Z,1011.18
2017-09-20T17:21:36.505Z,1011.18
2017-09-20T17:22:39.489Z,1011.18
2017-09-20T17:23:40.304Z,1011.18
2017-09-20T17:24:40.300Z,1011.21
2017-09-20T17:25:36.810Z,1011.22
2017-09-20T17:27:42.443Z,1011.17
2017-09-20T17:28:39.558Z,1011.17
2017-09-20T17:29:38.803Z,1011.14
2017-09-20T17:30:39.126Z,1011.16
2017-09-20T17:31:33.488Z,1011.16
2017-09-20T17:32:28.085Z,1011.2
2017-09-20T17:33:23.540Z,1011.21
2017-09-20T17:34:17.334Z,1011.24
2017-09-20T17:35:13.926Z,1011.22
2017-09-20T17:36:08.762Z,1011.26
2017-09-20T17:37:07.296Z,1011.27
2017-09-20T17:38:04.708Z,1011.28
2017-09-20T17:39:01.913Z,1011.27
2017-09-20T17:39:58.301Z,1011.28
2017-09-20T17:40:54.046Z,1011.26
2017-09-20T17:41:52.863Z,1011.31
2017-09-20T17:42:59.419Z,1011.31
2017-09-20T17:43:56.263Z,1011.31
2017-09-20T17:44:57.153Z,1011.32
2017-09-20T17:45:55.781Z,1011.33
2017-09-20T17:46:51.222Z,1011.35
2017-09-20T17:49:04.107Z,1011.35
2017-09-20T17:51:07.205Z,1011.36
2017-09-20T17:53:35.634Z,1011.34
2017-09-20T17:55:47.893Z,1011.39
2017-09-20T17:56:44.988Z,1011.41
2017-09-20T17:57:46.451Z,1011.43
2017-09-20T17:58:47.179Z,1011.42
2017-09-20T17:59:49.042Z,1011.46
2017-09-20T18:00:50.983Z,1011.45
2017-09-20T18:01:50.814Z,1011.47
2017-09-20T18:02:53.569Z,1011.41
2017-09-20T18:03:54.591Z,1011.45
2017-09-20T18:04:58.729Z,1011.43
2017-09-20T18:06:00.408Z,1011.44
2017-09-20T18:07:16.519Z,1011.46
2017-09-20T18:08:19.910Z,1011.47
2017-09-20T18:09:24.929Z,1011.54
2017-09-20T18:10:28.664Z,1011.56
2017-09-20T18:11:29.392Z,1011.53
2017-09-20T18:12:39.973Z,1011.54
2017-09-20T18:13:42.438Z,1011.54
2017-09-20T18:14:43.815Z,1011.57
2017-09-20T18:15:48.665Z,1011.58
2017-09-20T18:16:54.163Z,1011.59
2017-09-20T18:17:55.230Z,1011.6
2017-09-20T18:19:02.063Z,1011.63
2017-09-20T18:20:07.167Z,1011.63
2017-09-20T18:21:26.473Z,1011.69
2017-09-20T18:22:32.287Z,1011.65
2017-09-20T18:25:14.190Z,1011.69
2017-09-20T18:26:50.810Z,1011.66
2017-09-20T18:27:53.573Z,1011.68
2017-09-20T18:28:59.930Z,1011.67
2017-09-20T18:30:00.419Z,1011.7
2017-09-20T18:31:00.462Z,1011.69
2017-09-20T18:32:01.903Z,1011.68
2017-09-20T18:33:05.973Z,1011.69
2017-09-20T18:34:15.395Z,1011.69
2017-09-20T18:35:21.483Z,1011.67
2017-09-20T18:36:26.442Z,1011.67
2017-09-20T18:37:41.825Z,1011.68
2017-09-20T18:43:12.248Z,1011.71
2017-09-20T18:44:08.966Z,1011.73
2017-09-20T18:45:12.577Z,1011.73
2017-09-20T18:46:12.562Z,1011.69
2017-09-20T18:47:16.184Z,1011.67
2017-09-20T18:48:18.873Z,1011.71
2017-09-20T18:49:20.179Z,1011.7
2017-09-20T18:50:18.668Z,1011.69
2017-09-20T18:51:22.958Z,1011.7
2017-09-20T18:52:25.569Z,1011.71
2017-09-20T18:53:30.311Z,1011.7
2017-09-20T18:54:33.409Z,1011.69
2017-09-20T18:55:35.724Z,1011.73
2017-09-20T18:56:35.912Z,1011.71
2017-09-20T18:57:34.892Z,1011.72
2017-09-20T18:58:38.769Z,1011.68
2017-09-20T18:59:40.479Z,1011.69
2017-09-20T19:03:07.460Z,1011.71
2017-09-20T19:03:48.693Z,1011.73
2017-09-20T19:04:29.741Z,1011.69
2017-09-20T19:05:10.093Z,1011.7
2017-09-20T19:05:51.028Z,1011.69
2017-09-20T19:06:31.471Z,1011.72
2017-09-20T19:07:12.081Z,1011.67
2017-09-20T19:07:52.644Z,1011.71
2017-09-20T19:08:33.597Z,1011.69
2017-09-20T19:09:14.150Z,1011.69
2017-09-20T19:09:54.990Z,1011.69
2017-09-20T19:10:35.224Z,1011.68
2017-09-20T19:11:15.613Z,1011.72
2017-09-20T19:11:56.133Z,1011.71
2017-09-20T19:12:36.663Z,1011.69
2017-09-20T19:13:17.332Z,1011.74
2017-09-20T19:13:58.426Z,1011.72
2017-09-20T19:14:38.966Z,1011.76
2017-09-20T19:15:19.713Z,1011.72
2017-09-20T19:16:00.547Z,1011.73
2017-09-20T19:16:40.858Z,1011.72
2017-09-20T19:17:21.460Z,1011.74
2017-09-20T19:18:01.881Z,1011.75
2017-09-20T19:18:42.760Z,1011.75
2017-09-20T19:19:23.531Z,1011.72
2017-09-20T19:20:04.284Z,1011.71
2017-09-20T19:20:45.146Z,1011.69
2017-09-20T19:21:25.471Z,1011.69
2017-09-20T19:22:06.143Z,1011.7
2017-09-20T19:22:46.865Z,1011.68
2017-09-20T19:23:27.637Z,1011.69
2017-09-20T19:24:08.336Z,1011.69
2017-09-20T19:24:49.159Z,1011.67
2017-09-20T19:25:29.965Z,1011.67
2017-09-20T19:26:10.409Z,1011.7
2017-09-20T19:26:51.229Z,1011.67
2017-09-20T19:27:31.582Z,1011.69
2017-09-20T19:28:12.591Z,1011.7
2017-09-20T19:28:53.464Z,1011.67
2017-09-20T19:29:33.852Z,1011.68
2017-09-20T19:30:14.395Z,1011.69
2017-09-20T19:30:54.960Z,1011.66
2017-09-20T19:31:35.593Z,1011.67
2017-09-20T19:32:16.328Z,1011.66
2017-09-20T19:32:56.756Z,1011.66
2017-09-20T19:33:37.412Z,1011.63
2017-09-20T19:34:17.862Z,1011.63
2017-09-20T19:34:58.281Z,1011.64
2017-09-20T19:35:39.092Z,1011.63
2017-09-20T19:36:19.669Z,1011.66
2017-09-20T19:37:00.171Z,1011.63
2017-09-20T19:37:40.775Z,1011.63
2017-09-20T19:38:21.802Z,1011.63
2017-09-20T19:39:02.168Z,1011.64
2017-09-20T19:39:42.882Z,1011.6
2017-09-20T19:40:23.522Z,1011.59
2017-09-20T19:41:04.401Z,1011.61
2017-09-20T19:41:45.300Z,1011.63
2017-09-20T19:42:25.851Z,1011.62
2017-09-20T19:43:06.561Z,1011.59
2017-09-20T19:43:47.121Z,1011.6
2017-09-20T19:44:28.449Z,1011.62
2017-09-20T19:45:08.929Z,1011.6
2017-09-20T19:45:49.536Z,1011.62
2017-09-20T19:46:30.038Z,1011.64
2017-09-20T19:47:10.475Z,1011.62
2017-09-20T19:47:50.873Z,1011.64
2017-09-20T19:48:31.528Z,1011.62
2017-09-20T19:49:11.926Z,1011.63
2017-09-20T19:49:52.217Z,1011.61
2017-09-20T19:50:32.862Z,1011.63
2017-09-20T19:51:13.504Z,1011.62
2017-09-20T19:51:53.995Z,1011.64
2017-09-20T19:52:34.470Z,1011.6
2017-09-20T19:53:15.240Z,1011.61
2017-09-20T19:53:56.142Z,1011.64
2017-09-20T19:54:36.469Z,1011.6
2017-09-20T19:55:17.037Z,1011.59
2017-09-20T19:55:57.410Z,1011.61
2017-09-20T19:56:38.334Z,1011.56
2017-09-20T19:57:18.480Z,1011.55
2017-09-20T19:58:00.833Z,1011.55
2017-09-20T19:58:41.506Z,1011.56
2017-09-20T19:59:21.853Z,1011.55
2017-09-20T20:00:02.377Z,1011.53
2017-09-20T20:00:43.436Z,1011.53
2017-09-20T20:01:23.824Z,1011.56
2017-09-20T20:02:04.294Z,1011.52
2017-09-20T20:02:44.758Z,1011.53
2017-09-20T20:03:25.471Z,1011.57
2017-09-20T20:04:06.541Z,1011.57
2017-09-20T20:04:46.938Z,1011.56
2017-09-20T20:05:27.208Z,1011.55
2017-09-20T20:06:07.963Z,1011.57
2017-09-20T20:06:48.434Z,1011.61
2017-09-20T20:07:29.063Z,1011.6
2017-09-20T20:08:09.713Z,1011.61
2017-09-20T20:08:50.126Z,1011.62
2017-09-20T20:09:30.928Z,1011.6
2017-09-20T20:10:11.445Z,1011.6
2017-09-20T20:10:51.865Z,1011.64
2017-09-20T20:11:32.414Z,1011.65
2017-09-20T20:12:12.774Z,1011.57
2017-09-20T20:12:53.311Z,1011.64
2017-09-20T20:13:34.505Z,1011.62
2017-09-20T20:14:14.857Z,1011.6
2017-09-20T20:14:56.336Z,1011.66
2017-09-20T20:15:37.244Z,1011.63
2017-09-20T20:16:18.194Z,1011.6
2017-09-20T20:16:58.678Z,1011.63
2017-09-20T20:17:39.141Z,1011.66
2017-09-20T20:18:19.695Z,1011.62
2017-09-20T20:19:00.183Z,1011.63
2017-09-20T20:19:41.505Z,1011.66